createdAt,value
2018-07-24T00:01:10.938Z,100578.46
2018-07-24T00:03:39.494Z,100579.47
2018-07-24T00:06:07.800Z,100574.31
2018-07-24T00:08:36.127Z,100576.78
2018-07-24T00:11:05.040Z,100579.37
2018-07-24T00:13:33.294Z,100584.33
2018-07-24T00:16:02.784Z,100575.95
2018-07-24T00:18:31.179Z,100579.87
2018-07-24T00:20:59.538Z,100572.02
2018-07-24T00:23:27.915Z,100566.89
2018-07-24T00:25:56.302Z,100570.09
2018-07-24T00:28:25.212Z,100570.70
2018-07-24T00:30:53.564Z,100564.93
2018-07-24T00:33:21.951Z,100564.07
2018-07-24T00:35:50.287Z,100569.73
2018-07-24T00:38:18.607Z,100570.66
2018-07-24T00:40:46.945Z,100571.56
2018-07-24T00:43:15.282Z,100572.03
2018-07-24T00:45:43.609Z,100570.44
2018-07-24T00:48:11.951Z,100569.68
2018-07-24T00:50:40.320Z,100570.22
2018-07-24T00:53:08.704Z,100568.87
2018-07-24T00:55:37.060Z,100564.89
2018-07-24T00:58:05.611Z,100573.31
2018-07-24T01:00:33.970Z,100561.55
2018-07-24T01:03:02.317Z,100566.52
2018-07-24T01:05:30.625Z,100558.13
2018-07-24T01:07:58.926Z,100558.13
2018-07-24T01:10:27.233Z,100552.78
2018-07-24T01:12:55.574Z,100547.53
2018-07-24T01:15:23.967Z,100552.72
2018-07-24T01:17:52.299Z,100553.03
2018-07-24T01:20:20.615Z,100546.61
2018-07-24T01:22:48.958Z,100548.37
2018-07-24T01:25:17.360Z,100550.66
2018-07-24T01:27:45.725Z,100558.81
2018-07-24T01:30:14.045Z,100553.79
2018-07-24T01:32:42.360Z,100552.66
2018-07-24T01:35:10.657Z,100554.92
2018-07-24T01:37:38.993Z,100552.56
2018-07-24T01:40:07.314Z,100549.14
2018-07-24T01:42:35.666Z,100544.55
2018-07-24T01:45:04.021Z,100548.91
2018-07-24T01:47:32.332Z,100548.20
2018-07-24T01:50:00.721Z,100553.89
2018-07-24T01:52:29.087Z,100550.17
2018-07-24T01:54:57.443Z,100547.94
2018-07-24T01:57:25.807Z,100546.98
2018-07-24T01:59:54.127Z,100546.44
2018-07-24T02:02:22.476Z,100547.34
2018-07-24T02:04:50.786Z,100552.69
2018-07-24T02:07:19.123Z,100549.86
2018-07-24T02:09:47.482Z,100549.16
2018-07-24T02:12:16.329Z,100550.69
2018-07-24T02:14:44.970Z,100555.94
2018-07-24T02:17:13.545Z,100554.69
2018-07-24T02:19:41.937Z,100555.55
2018-07-24T02:22:10.271Z,100548.44
2018-07-24T02:24:39.010Z,100553.07
2018-07-24T02:27:07.342Z,100550.30
2018-07-24T02:29:35.678Z,100554.19
2018-07-24T02:32:04.022Z,100552.77
2018-07-24T02:34:32.394Z,100553.11
2018-07-24T02:37:00.751Z,100549.56
2018-07-24T02:39:29.123Z,100548.40
2018-07-24T02:41:57.488Z,100544.67
2018-07-24T02:44:26.418Z,100549.14
2018-07-24T02:46:54.752Z,100546.22
2018-07-24T02:49:23.095Z,100558.39
2018-07-24T02:51:51.473Z,100547.27
2018-07-24T02:54:19.823Z,100548.31
2018-07-24T02:56:48.193Z,100546.84
2018-07-24T02:59:16.565Z,100543.16
2018-07-24T03:01:45.240Z,100544.40
2018-07-24T03:04:13.687Z,100540.11
2018-07-24T03:06:42.112Z,100532.44
2018-07-24T03:09:11.700Z,100533.97
2018-07-24T03:11:40.024Z,100538.07
2018-07-24T03:14:08.752Z,100541.49
2018-07-24T03:16:37.101Z,100530.83
2018-07-24T03:19:05.801Z,100526.02
2018-07-24T03:21:34.465Z,100528.67
2018-07-24T03:24:02.799Z,100532.43
2018-07-24T03:26:31.122Z,100534.95
2018-07-24T03:28:59.481Z,100535.39
2018-07-24T03:31:27.914Z,100534.19
2018-07-24T03:33:56.630Z,100533.84
2018-07-24T03:36:25.016Z,100531.47
2018-07-24T03:38:53.547Z,100532.24
2018-07-24T03:41:21.896Z,100534.77
2018-07-24T03:43:50.208Z,100532.70
2018-07-24T03:46:18.575Z,100532.24
2018-07-24T03:48:47.094Z,100536.53
2018-07-24T03:51:15.446Z,100534.98
2018-07-24T03:53:43.827Z,100536.33
2018-07-24T03:56:12.167Z,100536.33
2018-07-24T03:58:40.532Z,100536.22
2018-07-24T04:01:08.900Z,100533.69
2018-07-24T04:03:37.292Z,100535.44
2018-07-24T04:06:05.629Z,100537.17
2018-07-24T04:08:33.993Z,100531.63
2018-07-24T04:11:02.326Z,100528.37
2018-07-24T04:13:30.627Z,100533.44
2018-07-24T04:15:59.006Z,100526.91
2018-07-24T04:18:30.437Z,100530.91
2018-07-24T04:20:58.769Z,100534.98
2018-07-24T04:23:27.091Z,100530.64
2018-07-24T04:25:55.411Z,100537.11
2018-07-24T04:28:23.874Z,100532.39
2018-07-24T04:30:52.280Z,100529.66
2018-07-24T04:33:20.585Z,100533.47
2018-07-24T04:35:48.914Z,100529.53
2018-07-24T04:38:17.384Z,100529.02
2018-07-24T04:40:45.761Z,100529.63
2018-07-24T04:43:14.157Z,100531.64
2018-07-24T04:45:42.857Z,100528.98
2018-07-24T04:48:11.197Z,100535.70
2018-07-24T04:50:39.524Z,100541.44
2018-07-24T04:53:08.548Z,100534.87
2018-07-24T04:55:37.078Z,100542.73
2018-07-24T04:58:05.536Z,100544.67
2018-07-24T05:00:34.203Z,100549.56
2018-07-24T05:03:03.804Z,100542.69
2018-07-24T05:05:32.164Z,100546.81
2018-07-24T05:08:00.514Z,100549.25
2018-07-24T05:10:28.985Z,100550.78
2018-07-24T05:12:57.624Z,100550.13
2018-07-24T05:15:26.005Z,100551.27
2018-07-24T05:17:54.471Z,100556.16
2018-07-24T05:20:22.828Z,100553.64
2018-07-24T05:22:51.338Z,100550.77
2018-07-24T05:25:19.934Z,100545.75
2018-07-24T05:27:48.674Z,100548.11
2018-07-24T05:30:17.158Z,100554.16
2018-07-24T05:32:45.935Z,100561.04
2018-07-24T05:35:14.348Z,100555.45
2018-07-24T05:37:42.986Z,100560.03
2018-07-24T05:40:11.361Z,100557.72
2018-07-24T05:42:39.745Z,100560.01
2018-07-24T05:45:08.094Z,100555.72
2018-07-24T05:47:36.438Z,100564.71
2018-07-24T05:50:04.954Z,100561.08
2018-07-24T05:52:33.369Z,100562.34
2018-07-24T05:55:01.900Z,100562.45
2018-07-24T05:57:30.225Z,100562.24
2018-07-24T05:59:58.592Z,100569.30
2018-07-24T06:02:27.025Z,100565.38
2018-07-24T06:04:55.422Z,100567.86
2018-07-24T06:07:23.779Z,100569.83
2018-07-24T06:09:52.128Z,100577.83
2018-07-24T06:12:20.540Z,100571.39
2018-07-24T06:14:49.122Z,100570.68
2018-07-24T06:17:17.533Z,100569.24
2018-07-24T06:19:45.901Z,100575.11
2018-07-24T06:22:14.240Z,100579.93
2018-07-24T06:24:42.601Z,100578.67
2018-07-24T06:27:10.959Z,100577.53
2018-07-24T06:29:39.319Z,100576.86
2018-07-24T06:32:07.696Z,100577.09
2018-07-24T06:34:36.046Z,100582.21
2018-07-24T06:37:04.427Z,100574.14
2018-07-24T06:39:32.751Z,100576.98
2018-07-24T06:42:01.117Z,100581.61
2018-07-24T06:44:29.473Z,100581.30
2018-07-24T06:46:57.788Z,100578.54
2018-07-24T06:49:26.219Z,100576.98
2018-07-24T06:51:54.589Z,100573.19
2018-07-24T06:54:22.876Z,100574.95
2018-07-24T06:56:51.220Z,100575.07
2018-07-24T06:59:19.923Z,100572.58
2018-07-24T07:01:48.260Z,100577.66
2018-07-24T07:04:16.679Z,100576.94
2018-07-24T07:06:45.029Z,100581.69
2018-07-24T07:09:13.395Z,100577.03
2018-07-24T07:11:41.757Z,100575.14
2018-07-24T07:14:10.084Z,100577.73
2018-07-24T07:16:38.404Z,100573.02
2018-07-24T07:19:06.832Z,100574.94
2018-07-24T07:21:35.453Z,100574.77
2018-07-24T07:24:03.852Z,100570.64
2018-07-24T07:26:32.267Z,100568.53
2018-07-24T07:29:00.640Z,100571.00
2018-07-24T07:31:29.004Z,100573.69
2018-07-24T07:33:57.540Z,100572.44
2018-07-24T07:36:25.870Z,100579.67
2018-07-24T07:38:54.207Z,100576.56
2018-07-24T07:41:22.532Z,100575.41
2018-07-24T07:43:50.863Z,100568.88
2018-07-24T07:46:19.246Z,100565.59
2018-07-24T07:48:47.578Z,100564.62
2018-07-24T07:51:15.923Z,100560.55
2018-07-24T07:53:44.251Z,100563.65
2018-07-24T07:56:12.608Z,100560.80
2018-07-24T07:58:41.032Z,100556.61
2018-07-24T08:01:09.269Z,100562.02
2018-07-24T08:03:37.609Z,100561.84
2018-07-24T08:06:05.985Z,100561.97
2018-07-24T08:08:34.290Z,100558.55
2018-07-24T08:11:02.626Z,100559.23
2018-07-24T08:13:30.963Z,100563.69
2018-07-24T08:15:59.344Z,100563.02
2018-07-24T08:18:27.755Z,100557.36
2018-07-24T08:20:56.132Z,100553.03
2018-07-24T08:23:24.543Z,100551.23
2018-07-24T08:25:52.860Z,100553.18
2018-07-24T08:28:21.190Z,100550.01
2018-07-24T08:30:49.539Z,100546.53
2018-07-24T08:33:17.842Z,100542.70
2018-07-24T08:35:46.190Z,100541.75
2018-07-24T08:38:14.493Z,100543.91
2018-07-24T08:40:42.801Z,100542.84
2018-07-24T08:43:11.168Z,100536.99
2018-07-24T08:45:39.477Z,100542.00
2018-07-24T08:48:08.044Z,100545.96
2018-07-24T08:50:36.387Z,100538.20
2018-07-24T08:53:04.926Z,100538.70
2018-07-24T08:55:33.695Z,100534.36
2018-07-24T08:58:01.748Z,100539.88
2018-07-24T09:00:30.323Z,100531.70
2018-07-24T09:02:58.699Z,100528.45
2018-07-24T09:05:27.001Z,100529.64
2018-07-24T09:07:55.337Z,100526.17
2018-07-24T09:10:23.696Z,100521.20
2018-07-24T09:12:52.162Z,100521.80
2018-07-24T09:15:20.506Z,100518.73
2018-07-24T09:17:48.840Z,100522.48
2018-07-24T09:20:17.256Z,100518.68
2018-07-24T09:22:46.062Z,100523.95
2018-07-24T09:25:14.469Z,100523.75
2018-07-24T09:27:46.768Z,100525.00
2018-07-24T09:30:15.161Z,100521.45
2018-07-24T09:32:43.548Z,100523.61
2018-07-24T09:35:12.300Z,100521.44
2018-07-24T09:37:40.668Z,100518.87
2018-07-24T09:40:09.020Z,100527.98
2018-07-24T09:42:37.468Z,100520.55
2018-07-24T09:45:07.866Z,100523.13
2018-07-24T09:47:36.297Z,100514.33
2018-07-24T09:50:04.972Z,100513.32
2018-07-24T09:52:33.355Z,100507.27
2018-07-24T09:55:02.627Z,100508.67
2018-07-24T09:57:32.091Z,100507.08
2018-07-24T10:00:00.428Z,100502.33
2018-07-24T10:02:28.740Z,100499.98
2018-07-24T10:04:57.059Z,100506.69
2018-07-24T10:07:25.388Z,100497.30
2018-07-24T10:09:53.714Z,100501.05
2018-07-24T10:12:22.339Z,100497.84
2018-07-24T10:14:52.042Z,100493.12
2018-07-24T10:17:20.375Z,100495.34
2018-07-24T10:19:49.371Z,100487.02
2018-07-24T10:22:17.789Z,100482.77
2018-07-24T10:24:46.072Z,100480.59
2018-07-24T10:27:14.444Z,100477.05
2018-07-24T10:29:42.804Z,100473.56
2018-07-24T10:32:11.342Z,100477.96
2018-07-24T10:34:40.456Z,100477.67
2018-07-24T10:37:09.405Z,100475.49
2018-07-24T10:39:37.734Z,100477.17
2018-07-24T10:42:06.589Z,100477.74
2018-07-24T10:44:35.318Z,100475.32
2018-07-24T10:47:03.712Z,100471.09
2018-07-24T10:49:32.015Z,100468.02
2018-07-24T10:52:00.461Z,100469.65
2018-07-24T10:54:28.791Z,100459.64
2018-07-24T10:56:57.152Z,100465.78
2018-07-24T10:59:25.527Z,100459.84
2018-07-24T11:01:54.135Z,100463.70
2018-07-24T11:04:22.471Z,100459.02
2018-07-24T11:06:50.798Z,100460.73
2018-07-24T11:09:19.103Z,100455.86
2018-07-24T11:11:47.420Z,100452.91
2018-07-24T11:14:15.754Z,100452.52
2018-07-24T11:16:44.119Z,100446.94
2018-07-24T11:19:12.425Z,100440.03
2018-07-24T11:21:40.872Z,100438.75
2018-07-24T11:24:09.302Z,100438.05
2018-07-24T11:26:37.655Z,100440.09
2018-07-24T11:29:06.126Z,100431.54
2018-07-24T11:31:34.527Z,100431.19
2018-07-24T11:34:02.895Z,100429.28
2018-07-24T11:36:31.222Z,100424.14
2018-07-24T11:38:59.552Z,100420.10
2018-07-24T11:41:27.935Z,100417.52
2018-07-24T11:43:56.363Z,100414.58
2018-07-24T11:46:25.061Z,100412.32
2018-07-24T11:48:53.421Z,100407.67
2018-07-24T11:51:21.737Z,100407.72
2018-07-24T11:53:50.029Z,100402.30
2018-07-24T11:56:18.384Z,100402.28
2018-07-24T11:58:46.767Z,100399.95
2018-07-24T12:01:15.141Z,100399.78
2018-07-24T12:03:43.591Z,100396.56
2018-07-24T12:06:11.959Z,100391.78
2018-07-24T12:08:40.301Z,100390.02
2018-07-24T12:11:08.645Z,100388.16
2018-07-24T12:13:37.058Z,100390.62
2018-07-24T12:16:05.519Z,100382.06
2018-07-24T12:18:33.914Z,100383.56
2018-07-24T12:21:02.443Z,100377.50
2018-07-24T12:23:30.789Z,100379.14
2018-07-24T12:25:59.140Z,100370.71
2018-07-24T12:28:27.495Z,100368.56
2018-07-24T12:30:56.067Z,100372.19
2018-07-24T12:33:24.383Z,100364.27
2018-07-24T12:35:52.714Z,100370.23
2018-07-24T12:38:21.075Z,100362.94
2018-07-24T12:40:49.367Z,100362.78
2018-07-24T12:43:17.685Z,100365.27
2018-07-24T12:45:46.005Z,100364.28
2018-07-24T12:48:14.361Z,100354.37
2018-07-24T12:50:42.683Z,100354.84
2018-07-24T12:53:11.194Z,100351.73
2018-07-24T12:55:39.572Z,100352.05
2018-07-24T12:58:07.920Z,100349.94
2018-07-24T13:00:36.289Z,100344.48
2018-07-24T13:03:04.681Z,100343.81
2018-07-24T13:05:32.990Z,100338.84
2018-07-24T13:08:01.348Z,100336.85
2018-07-24T13:10:29.719Z,100339.19
2018-07-24T13:12:58.097Z,100335.37
2018-07-24T13:15:26.441Z,100341.83
2018-07-24T13:17:54.920Z,100339.50
2018-07-24T13:20:23.258Z,100333.55
2018-07-24T13:22:51.591Z,100334.89
2018-07-24T13:25:19.902Z,100332.25
2018-07-24T13:27:48.403Z,100323.64
2018-07-24T13:30:16.726Z,100320.15
2018-07-24T13:32:45.058Z,100328.25
2018-07-24T13:35:13.371Z,100323.30
2018-07-24T13:37:41.733Z,100317.69
2018-07-24T13:40:10.049Z,100316.84
2018-07-24T13:42:38.403Z,100322.94
2018-07-24T13:45:06.875Z,100319.80
2018-07-24T13:47:35.121Z,100316.20
2018-07-24T13:50:03.655Z,100321.00
2018-07-24T13:52:31.964Z,100307.27
2018-07-24T13:55:00.308Z,100316.02
2018-07-24T13:57:28.667Z,100310.38
2018-07-24T13:59:56.960Z,100304.42
2018-07-24T14:02:25.279Z,100304.41
2018-07-24T14:04:53.623Z,100306.05
2018-07-24T14:07:21.953Z,100299.45
2018-07-24T14:09:50.325Z,100303.23
2018-07-24T14:12:18.695Z,100297.95
2018-07-24T14:14:47.251Z,100296.30
2018-07-24T14:17:15.601Z,100299.44
2018-07-24T14:19:43.986Z,100301.91
2018-07-24T14:22:12.383Z,100293.81
2018-07-24T14:24:40.783Z,100290.16
2018-07-24T14:27:09.225Z,100285.54
2018-07-24T14:29:37.625Z,100285.38
2018-07-24T14:32:06.053Z,100288.18
2018-07-24T14:34:34.436Z,100294.33
2018-07-24T14:37:02.808Z,100297.14
2018-07-24T14:39:31.206Z,100283.91
2018-07-24T14:41:59.578Z,100281.27
2018-07-24T14:44:27.931Z,100281.93
2018-07-24T14:46:56.252Z,100283.12
2018-07-24T14:49:24.592Z,100281.30
2018-07-24T14:51:52.949Z,100280.45
2018-07-24T14:54:21.362Z,100275.45
2018-07-24T14:56:49.797Z,100268.38
2018-07-24T14:59:18.146Z,100269.80
2018-07-24T15:01:46.459Z,100270.93
2018-07-24T15:04:14.775Z,100270.45
2018-07-24T15:06:43.130Z,100269.62
2018-07-24T15:09:12.694Z,100264.84
2018-07-24T15:11:41.310Z,100262.03
2018-07-24T15:14:09.684Z,100259.72
2018-07-24T15:16:38.039Z,100261.70
2018-07-24T15:19:06.398Z,100256.91
2018-07-24T15:21:34.733Z,100252.42
2018-07-24T15:24:03.098Z,100253.39
2018-07-24T15:26:31.486Z,100253.45
2018-07-24T15:28:59.820Z,100254.25
2018-07-24T15:31:28.472Z,100254.41
2018-07-24T15:33:56.841Z,100252.23
2018-07-24T15:36:25.165Z,100247.76
2018-07-24T15:38:53.509Z,100246.46
2018-07-24T15:41:21.903Z,100243.28
2018-07-24T15:43:50.160Z,100241.68
2018-07-24T15:46:18.488Z,100245.48
2018-07-24T15:48:46.850Z,100240.53
2018-07-24T15:51:15.191Z,100237.21
2018-07-24T15:53:43.763Z,100242.86
2018-07-24T15:56:12.240Z,100231.61
2018-07-24T15:58:40.516Z,100235.72
2018-07-24T16:01:08.910Z,100235.55
2018-07-24T16:03:37.316Z,100239.03
2018-07-24T16:06:05.724Z,100228.94
2018-07-24T16:08:34.072Z,100238.16
2018-07-24T16:11:02.578Z,100232.55
2018-07-24T16:13:30.958Z,100238.05
2018-07-24T16:15:59.332Z,100235.22
2018-07-24T16:18:27.722Z,100236.55
2018-07-24T16:20:56.088Z,100240.03
2018-07-24T16:23:24.432Z,100235.92
2018-07-24T16:25:52.805Z,100238.90
2018-07-24T16:28:21.131Z,100227.99
2018-07-24T16:30:49.507Z,100229.45
2018-07-24T16:33:17.815Z,100224.97
2018-07-24T16:35:46.133Z,100227.47
2018-07-24T16:38:14.455Z,100231.59
2018-07-24T16:40:42.824Z,100230.94
2018-07-24T16:43:11.156Z,100239.84
2018-07-24T16:45:39.533Z,100232.12
2018-07-24T16:48:07.856Z,100236.77
2018-07-24T16:50:36.224Z,100237.42
2018-07-24T16:53:04.586Z,100239.77
2018-07-24T16:55:32.988Z,100235.95
2018-07-24T16:58:01.428Z,100238.91
2018-07-24T17:00:29.753Z,100233.15
2018-07-24T17:02:58.148Z,100231.98
2018-07-24T17:05:26.480Z,100233.62
2018-07-24T17:07:54.844Z,100233.14
2018-07-24T17:10:23.199Z,100230.45
2018-07-24T17:12:51.572Z,100233.11
2018-07-24T17:15:19.924Z,100231.96
2018-07-24T17:17:48.241Z,100234.63
2018-07-24T17:20:16.548Z,100235.59
2018-07-24T17:22:44.953Z,100231.31
2018-07-24T17:25:15.738Z,100234.79
2018-07-24T17:27:44.108Z,100235.80
2018-07-24T17:30:15.198Z,100235.95
2018-07-24T17:32:46.619Z,100237.12
2018-07-24T17:35:15.575Z,100236.11
2018-07-24T17:37:47.704Z,100237.13
2018-07-24T17:40:16.686Z,100236.78
2018-07-24T17:42:46.952Z,100238.11
2018-07-24T17:45:18.984Z,100235.65
2018-07-24T17:47:47.480Z,100238.30
2018-07-24T17:50:15.852Z,100241.26
2018-07-24T17:52:44.240Z,100244.25
2018-07-24T17:55:17.466Z,100244.38
2018-07-24T17:57:45.988Z,100241.93
2018-07-24T18:00:14.663Z,100242.59
2018-07-24T18:02:44.064Z,100245.73
2018-07-24T18:05:12.843Z,100246.86
2018-07-24T18:07:41.312Z,100248.19
2018-07-24T18:10:10.185Z,100249.19
2018-07-24T18:12:38.608Z,100254.16
2018-07-24T18:15:06.941Z,100251.50
2018-07-24T18:17:35.248Z,100250.98
2018-07-24T18:20:03.779Z,100253.45
2018-07-24T18:22:32.633Z,100249.67
2018-07-24T18:25:01.111Z,100252.30
2018-07-24T18:27:29.604Z,100250.16
2018-07-24T18:29:58.117Z,100250.45
2018-07-24T18:32:26.518Z,100251.09
2018-07-24T18:34:55.008Z,100250.92
2018-07-24T18:37:23.648Z,100247.94
2018-07-24T18:39:52.038Z,100247.76
2018-07-24T18:42:20.492Z,100254.32
2018-07-24T18:44:48.852Z,100256.96
2018-07-24T18:47:17.244Z,100255.95
2018-07-24T18:49:45.689Z,100260.39
2018-07-24T18:52:14.061Z,100254.27
2018-07-24T18:54:42.952Z,100253.69
2018-07-24T18:57:11.964Z,100257.47
2018-07-24T18:59:41.656Z,100253.98
2018-07-24T19:02:10.356Z,100256.75
2018-07-24T19:04:39.831Z,100261.45
2018-07-24T19:07:09.012Z,100260.94
2018-07-24T19:09:37.522Z,100261.88
2018-07-24T19:12:05.934Z,100261.84
2018-07-24T19:14:34.309Z,100262.64
2018-07-24T19:17:02.798Z,100263.69
2018-07-24T19:19:31.441Z,100263.91
2018-07-24T19:21:59.963Z,100267.86
2018-07-24T19:24:28.563Z,100267.86
2018-07-24T19:26:57.271Z,100271.42
2018-07-24T19:29:25.627Z,100269.72
2018-07-24T19:31:54.302Z,100275.91
2018-07-24T19:34:23.009Z,100273.58
2018-07-24T19:36:52.407Z,100274.22
2018-07-24T19:39:20.927Z,100281.73
2018-07-24T19:41:49.372Z,100284.25
2018-07-24T19:44:17.836Z,100285.20
2018-07-24T19:46:46.167Z,100281.47
2018-07-24T19:49:14.701Z,100281.11
2018-07-24T19:51:43.208Z,100279.75
2018-07-24T19:54:11.746Z,100284.73
2018-07-24T19:56:40.153Z,100286.17
2018-07-24T19:59:08.847Z,100284.76
2018-07-24T20:01:37.665Z,100291.62
2018-07-24T20:04:08.763Z,100291.65
2018-07-24T20:06:37.617Z,100287.67
2018-07-24T20:09:09.672Z,100287.64
2018-07-24T20:11:38.172Z,100289.04
2018-07-24T20:14:07.017Z,100295.95
2018-07-24T20:16:35.414Z,100293.64
2018-07-24T20:19:04.563Z,100296.52
2018-07-24T20:21:32.859Z,100295.17
2018-07-24T20:24:01.300Z,100295.01
2018-07-24T20:26:29.910Z,100302.89
2018-07-24T20:28:58.312Z,100294.25
2018-07-24T20:31:26.888Z,100291.02
2018-07-24T20:33:55.345Z,100293.84
2018-07-24T20:36:23.833Z,100292.62
2018-07-24T20:38:52.796Z,100297.87
2018-07-24T20:41:21.202Z,100294.91
2018-07-24T20:43:49.783Z,100293.52
2018-07-24T20:46:18.291Z,100290.76
2018-07-24T20:48:46.643Z,100295.24
2018-07-24T20:51:15.299Z,100291.63
2018-07-24T20:53:43.691Z,100285.20
2018-07-24T20:56:12.312Z,100288.36
2018-07-24T20:58:41.015Z,100289.45
2018-07-24T21:01:10.048Z,100296.20
2018-07-24T21:03:38.386Z,100289.50
2018-07-24T21:06:06.760Z,100295.08
2018-07-24T21:08:35.014Z,100294.47
2018-07-24T21:11:03.365Z,100297.13
2018-07-24T21:13:31.699Z,100298.86
2018-07-24T21:16:00.032Z,100299.04
2018-07-24T21:18:28.369Z,100293.20
2018-07-24T21:20:56.733Z,100298.73
2018-07-24T21:23:25.037Z,100297.77
2018-07-24T21:25:53.436Z,100301.59
2018-07-24T21:28:21.751Z,100300.07
2018-07-24T21:30:50.099Z,100297.66
2018-07-24T21:33:18.397Z,100298.98
2018-07-24T21:35:46.735Z,100296.14
2018-07-24T21:38:15.729Z,100296.95
2018-07-24T21:40:44.262Z,100303.40
2018-07-24T21:43:12.664Z,100300.07
2018-07-24T21:45:41.304Z,100304.22
2018-07-24T21:48:09.630Z,100306.52
2018-07-24T21:50:37.979Z,100302.93
2018-07-24T21:53:06.356Z,100309.73
2018-07-24T21:55:34.689Z,100299.63
2018-07-24T21:58:03.170Z,100297.98
2018-07-24T22:00:35.430Z,100302.48
2018-07-24T22:03:04.463Z,100312.62
2018-07-24T22:05:33.432Z,100308.58
2018-07-24T22:08:01.807Z,100309.66
2018-07-24T22:10:30.186Z,100309.53
2018-07-24T22:12:58.487Z,100303.59
2018-07-24T22:15:27.608Z,100308.71
2018-07-24T22:17:56.650Z,100306.20
2018-07-24T22:20:25.250Z,100307.16
2018-07-24T22:22:53.652Z,100311.45
2018-07-24T22:25:22.044Z,100310.40
2018-07-24T22:27:50.423Z,100309.91
2018-07-24T22:30:18.864Z,100310.16
2018-07-24T22:32:47.356Z,100310.70
2018-07-24T22:35:15.684Z,100311.91
2018-07-24T22:37:44.055Z,100308.47
2018-07-24T22:40:12.700Z,100307.98
2018-07-24T22:42:41.200Z,100310.48
2018-07-24T22:45:09.756Z,100308.02
2018-07-24T22:47:38.245Z,100305.28
2018-07-24T22:50:07.139Z,100314.55
2018-07-24T22:52:35.466Z,100310.97
2018-07-24T22:55:03.815Z,100310.95
2018-07-24T22:57:32.145Z,100307.86
2018-07-24T23:00:00.496Z,100314.79
2018-07-24T23:02:28.799Z,100314.89
2018-07-24T23:04:57.529Z,100315.10
2018-07-24T23:07:27.562Z,100322.84
2018-07-24T23:09:55.986Z,100319.38
2018-07-24T23:12:24.514Z,100312.14
2018-07-24T23:14:52.917Z,100312.97
2018-07-24T23:17:21.484Z,100317.70
2018-07-24T23:19:50.037Z,100317.23
2018-07-24T23:22:18.371Z,100316.03
2018-07-24T23:24:46.664Z,100318.52
2018-07-24T23:27:15.049Z,100320.17
2018-07-24T23:29:43.392Z,100323.86
2018-07-24T23:32:11.816Z,100314.47
2018-07-24T23:34:40.162Z,100319.81
2018-07-24T23:37:08.580Z,100317.41
2018-07-24T23:39:36.901Z,100318.11
2018-07-24T23:42:05.275Z,100314.32
2018-07-24T23:44:33.603Z,100317.88
2018-07-24T23:47:02.144Z,100315.95
2018-07-24T23:49:30.559Z,100315.20
2018-07-24T23:51:59.219Z,100313.33
2018-07-24T23:54:27.601Z,100311.86
2018-07-24T23:56:55.989Z,100310.18
2018-07-24T23:59:24.346Z,100312.93
